<?xml version="1.0" encoding="UTF-8" standalone="no" ?>
<gpx xmlns="http://www.topografix.com/GPX/1/1" xmlns:xsi="http://www.w3.org/2001/XMLSchema-instance" xsi:schemaLocation="http://www.topografix.com/GPX/1/1 http://www.topografix.com/GPX/1/1/gpx.xsd" version="1.1" creator="VisuGPX - https://www.visugpx.com">
  <metadata>
    <name>Barbecue Acilf 2025</name>
  </metadata>
  <trk>
    <name><![CDATA[Barbecue St Heand 2025-22450673]]></name>
    <extensions>
      <line xmlns="http://www.topografix.com/GPX/gpx_style/0/2">
        <color>0000FF</color>
        <width>4</width>
      </line>
    </extensions>
    <trkseg>
      <trkpt lat="45.53516" lon="4.3788">
        <ele>666</ele>
        <time>2025-09-17T13:05:23Z</time>
      </trkpt>
      <trkpt lat="45.53459" lon="4.37942">
        <ele>666</ele>
        <time>2025-09-17T13:06:20Z</time>
      </trkpt>
      <trkpt lat="45.53448" lon="4.38053">
        <ele>669</ele>
        <time>2025-09-17T13:07:23Z</time>
      </trkpt>
      <trkpt lat="45.53341" lon="4.38114">
        <ele>665</ele>
        <time>2025-09-17T13:08:56Z</time>
      </trkpt>
      <trkpt lat="45.5326" lon="4.38225">
        <ele>672</ele>
        <time>2025-09-17T13:10:25Z</time>
      </trkpt>
      <trkpt lat="45.53239" lon="4.38232">
        <ele>673</ele>
        <time>2025-09-17T13:10:43Z</time>
      </trkpt>
      <trkpt lat="45.53233" lon="4.38213">
        <ele>673</ele>
        <time>2025-09-17T13:10:54Z</time>
      </trkpt>
      <trkpt lat="45.52942" lon="4.38367">
        <ele>714</ele>
        <time>2025-09-17T13:15:03Z</time>
      </trkpt>
      <trkpt lat="45.52746" lon="4.38425">
        <ele>725</ele>
        <time>2025-09-17T13:17:43Z</time>
      </trkpt>
      <trkpt lat="45.52731" lon="4.3857">
        <ele>737</ele>
        <time>2025-09-17T13:19:05Z</time>
      </trkpt>
      <trkpt lat="45.52734" lon="4.38649">
        <ele>744</ele>
        <time>2025-09-17T13:19:50Z</time>
      </trkpt>
      <trkpt lat="45.52629" lon="4.38891">
        <ele>760</ele>
        <time>2025-09-17T13:22:29Z</time>
      </trkpt>
      <trkpt lat="45.52612" lon="4.38938">
        <ele>762</ele>
        <time>2025-09-17T13:22:59Z</time>
      </trkpt>
      <trkpt lat="45.52628" lon="4.39065">
        <ele>766</ele>
        <time>2025-09-17T13:24:11Z</time>
      </trkpt>
      <trkpt lat="45.52647" lon="4.3918">
        <ele>769</ele>
        <time>2025-09-17T13:25:18Z</time>
      </trkpt>
      <trkpt lat="45.5265" lon="4.39445">
        <ele>786</ele>
        <time>2025-09-17T13:27:46Z</time>
      </trkpt>
      <trkpt lat="45.52616" lon="4.39616">
        <ele>793</ele>
        <time>2025-09-17T13:29:26Z</time>
      </trkpt>
      <trkpt lat="45.52619" lon="4.39758">
        <ele>802</ele>
        <time>2025-09-17T13:30:46Z</time>
      </trkpt>
      <trkpt lat="45.52531" lon="4.39768">
        <ele>803</ele>
        <time>2025-09-17T13:31:56Z</time>
      </trkpt>
      <trkpt lat="45.52359" lon="4.39811">
        <ele>788</ele>
        <time>2025-09-17T13:34:16Z</time>
      </trkpt>
      <trkpt lat="45.52324" lon="4.39852">
        <ele>781</ele>
        <time>2025-09-17T13:34:53Z</time>
      </trkpt>
      <trkpt lat="45.52299" lon="4.39905">
        <ele>778</ele>
        <time>2025-09-17T13:35:28Z</time>
      </trkpt>
      <trkpt lat="45.52244" lon="4.39946">
        <ele>771</ele>
        <time>2025-09-17T13:36:18Z</time>
      </trkpt>
      <trkpt lat="45.52239" lon="4.40037">
        <ele>769</ele>
        <time>2025-09-17T13:37:09Z</time>
      </trkpt>
      <trkpt lat="45.52129" lon="4.40086">
        <ele>757</ele>
        <time>2025-09-17T13:38:42Z</time>
      </trkpt>
      <trkpt lat="45.52077" lon="4.40108">
        <ele>752</ele>
        <time>2025-09-17T13:39:25Z</time>
      </trkpt>
      <trkpt lat="45.52007" lon="4.40193">
        <ele>744</ele>
        <time>2025-09-17T13:40:39Z</time>
      </trkpt>
      <trkpt lat="45.51816" lon="4.40284">
        <ele>721</ele>
        <time>2025-09-17T13:43:20Z</time>
      </trkpt>
      <trkpt lat="45.51834" lon="4.40133">
        <ele>724</ele>
        <time>2025-09-17T13:44:46Z</time>
      </trkpt>
      <trkpt lat="45.51794" lon="4.39921">
        <ele>730</ele>
        <time>2025-09-17T13:46:49Z</time>
      </trkpt>
      <trkpt lat="45.51801" lon="4.3987">
        <ele>730</ele>
        <time>2025-09-17T13:47:18Z</time>
      </trkpt>
      <trkpt lat="45.51735" lon="4.39828">
        <ele>726</ele>
        <time>2025-09-17T13:48:16Z</time>
      </trkpt>
      <trkpt lat="45.51688" lon="4.3977">
        <ele>721</ele>
        <time>2025-09-17T13:49:06Z</time>
      </trkpt>
      <trkpt lat="45.51645" lon="4.39711">
        <ele>718</ele>
        <time>2025-09-17T13:49:53Z</time>
      </trkpt>
      <trkpt lat="45.51604" lon="4.39618">
        <ele>716</ele>
        <time>2025-09-17T13:50:55Z</time>
      </trkpt>
      <trkpt lat="45.51558" lon="4.39518">
        <ele>706</ele>
        <time>2025-09-17T13:52:02Z</time>
      </trkpt>
      <trkpt lat="45.51487" lon="4.39344">
        <ele>698</ele>
        <time>2025-09-17T13:53:55Z</time>
      </trkpt>
      <trkpt lat="45.51486" lon="4.39234">
        <ele>693</ele>
        <time>2025-09-17T13:54:57Z</time>
      </trkpt>
      <trkpt lat="45.5146" lon="4.3918">
        <ele>687</ele>
        <time>2025-09-17T13:55:34Z</time>
      </trkpt>
      <trkpt lat="45.51434" lon="4.39126">
        <ele>681</ele>
        <time>2025-09-17T13:56:10Z</time>
      </trkpt>
      <trkpt lat="45.51396" lon="4.39104">
        <ele>678</ele>
        <time>2025-09-17T13:56:43Z</time>
      </trkpt>
      <trkpt lat="45.51347" lon="4.39033">
        <ele>673</ele>
        <time>2025-09-17T13:57:39Z</time>
      </trkpt>
      <trkpt lat="45.51331" lon="4.38871">
        <ele>671</ele>
        <time>2025-09-17T13:59:11Z</time>
      </trkpt>
      <trkpt lat="45.51266" lon="4.38771">
        <ele>664</ele>
        <time>2025-09-17T14:00:27Z</time>
      </trkpt>
      <trkpt lat="45.51214" lon="4.38649">
        <ele>642</ele>
        <time>2025-09-17T14:01:48Z</time>
      </trkpt>
      <trkpt lat="45.51144" lon="4.38611">
        <ele>627</ele>
        <time>2025-09-17T14:02:48Z</time>
      </trkpt>
      <trkpt lat="45.51076" lon="4.38556">
        <ele>615</ele>
        <time>2025-09-17T14:03:50Z</time>
      </trkpt>
      <trkpt lat="45.51034" lon="4.38485">
        <ele>607</ele>
        <time>2025-09-17T14:04:42Z</time>
      </trkpt>
      <trkpt lat="45.50955" lon="4.38465">
        <ele>607</ele>
        <time>2025-09-17T14:05:46Z</time>
      </trkpt>
      <trkpt lat="45.50928" lon="4.38373">
        <ele>609</ele>
        <time>2025-09-17T14:06:42Z</time>
      </trkpt>
      <trkpt lat="45.50865" lon="4.38279">
        <ele>616</ele>
        <time>2025-09-17T14:07:55Z</time>
      </trkpt>
      <trkpt lat="45.50768" lon="4.38206">
        <ele>627</ele>
        <time>2025-09-17T14:09:23Z</time>
      </trkpt>
      <trkpt lat="45.50774" lon="4.38136">
        <ele>622</ele>
        <time>2025-09-17T14:10:03Z</time>
      </trkpt>
      <trkpt lat="45.50739" lon="4.38007">
        <ele>622</ele>
        <time>2025-09-17T14:11:20Z</time>
      </trkpt>
      <trkpt lat="45.5071" lon="4.3798">
        <ele>627</ele>
        <time>2025-09-17T14:11:48Z</time>
      </trkpt>
      <trkpt lat="45.50695" lon="4.37941">
        <ele>626</ele>
        <time>2025-09-17T14:12:13Z</time>
      </trkpt>
      <trkpt lat="45.50639" lon="4.37915">
        <ele>631</ele>
        <time>2025-09-17T14:13:00Z</time>
      </trkpt>
      <trkpt lat="45.50549" lon="4.37714">
        <ele>621</ele>
        <time>2025-09-17T14:15:14Z</time>
      </trkpt>
      <trkpt lat="45.50525" lon="4.37694">
        <ele>621</ele>
        <time>2025-09-17T14:15:36Z</time>
      </trkpt>
      <trkpt lat="45.50489" lon="4.37738">
        <ele>624</ele>
        <time>2025-09-17T14:16:14Z</time>
      </trkpt>
      <trkpt lat="45.5047" lon="4.37747">
        <ele>626</ele>
        <time>2025-09-17T14:16:30Z</time>
      </trkpt>
      <trkpt lat="45.50422" lon="4.37679">
        <ele>626</ele>
        <time>2025-09-17T14:17:25Z</time>
      </trkpt>
      <trkpt lat="45.50428" lon="4.37595">
        <ele>624</ele>
        <time>2025-09-17T14:18:12Z</time>
      </trkpt>
      <trkpt lat="45.50431" lon="4.37491">
        <ele>622</ele>
        <time>2025-09-17T14:19:10Z</time>
      </trkpt>
      <trkpt lat="45.50448" lon="4.37381">
        <ele>612</ele>
        <time>2025-09-17T14:20:14Z</time>
      </trkpt>
      <trkpt lat="45.50449" lon="4.37276">
        <ele>610</ele>
        <time>2025-09-17T14:21:12Z</time>
      </trkpt>
      <trkpt lat="45.50428" lon="4.37201">
        <ele>603</ele>
        <time>2025-09-17T14:21:58Z</time>
      </trkpt>
      <trkpt lat="45.50319" lon="4.37156">
        <ele>613</ele>
        <time>2025-09-17T14:23:29Z</time>
      </trkpt>
      <trkpt lat="45.50259" lon="4.37131">
        <ele>612</ele>
        <time>2025-09-17T14:24:19Z</time>
      </trkpt>
      <trkpt lat="45.50166" lon="4.36801">
        <ele>590</ele>
        <time>2025-09-17T14:27:38Z</time>
      </trkpt>
      <trkpt lat="45.50204" lon="4.36593">
        <ele>569</ele>
        <time>2025-09-17T14:29:39Z</time>
      </trkpt>
      <trkpt lat="45.50173" lon="4.36518">
        <ele>563</ele>
        <time>2025-09-17T14:30:28Z</time>
      </trkpt>
      <trkpt lat="45.50115" lon="4.36404">
        <ele>556</ele>
        <time>2025-09-17T14:31:47Z</time>
      </trkpt>
      <trkpt lat="45.49996" lon="4.36375">
        <ele>551</ele>
        <time>2025-09-17T14:33:23Z</time>
      </trkpt>
      <trkpt lat="45.49888" lon="4.36284">
        <ele>545</ele>
        <time>2025-09-17T14:35:04Z</time>
      </trkpt>
      <trkpt lat="45.49949" lon="4.36024">
        <ele>529</ele>
        <time>2025-09-17T14:37:38Z</time>
      </trkpt>
      <trkpt lat="45.50025" lon="4.35955">
        <ele>519</ele>
        <time>2025-09-17T14:38:50Z</time>
      </trkpt>
      <trkpt lat="45.5006" lon="4.35949">
        <ele>516</ele>
        <time>2025-09-17T14:39:18Z</time>
      </trkpt>
      <trkpt lat="45.50109" lon="4.35955">
        <ele>516</ele>
        <time>2025-09-17T14:39:57Z</time>
      </trkpt>
      <trkpt lat="45.50146" lon="4.35912">
        <ele>519</ele>
        <time>2025-09-17T14:40:36Z</time>
      </trkpt>
      <trkpt lat="45.50098" lon="4.35831">
        <ele>511</ele>
        <time>2025-09-17T14:41:35Z</time>
      </trkpt>
      <trkpt lat="45.50101" lon="4.35706">
        <ele>508</ele>
        <time>2025-09-17T14:42:45Z</time>
      </trkpt>
      <trkpt lat="45.50193" lon="4.35648">
        <ele>513</ele>
        <time>2025-09-17T14:44:06Z</time>
      </trkpt>
      <trkpt lat="45.5024" lon="4.35594">
        <ele>512</ele>
        <time>2025-09-17T14:44:54Z</time>
      </trkpt>
      <trkpt lat="45.50247" lon="4.35557">
        <ele>513</ele>
        <time>2025-09-17T14:45:16Z</time>
      </trkpt>
      <trkpt lat="45.50309" lon="4.35489">
        <ele>523</ele>
        <time>2025-09-17T14:46:18Z</time>
      </trkpt>
      <trkpt lat="45.50357" lon="4.35363">
        <ele>530</ele>
        <time>2025-09-17T14:47:39Z</time>
      </trkpt>
      <trkpt lat="45.50439" lon="4.3531">
        <ele>529</ele>
        <time>2025-09-17T14:48:51Z</time>
      </trkpt>
      <trkpt lat="45.50598" lon="4.3539">
        <ele>522</ele>
        <time>2025-09-17T14:51:06Z</time>
      </trkpt>
      <trkpt lat="45.50643" lon="4.35398">
        <ele>520</ele>
        <time>2025-09-17T14:51:42Z</time>
      </trkpt>
      <trkpt lat="45.50788" lon="4.35376">
        <ele>520</ele>
        <time>2025-09-17T14:53:39Z</time>
      </trkpt>
      <trkpt lat="45.50845" lon="4.35345">
        <ele>518</ele>
        <time>2025-09-17T14:54:28Z</time>
      </trkpt>
      <trkpt lat="45.50914" lon="4.35341">
        <ele>522</ele>
        <time>2025-09-17T14:55:23Z</time>
      </trkpt>
      <trkpt lat="45.50996" lon="4.35299">
        <ele>526</ele>
        <time>2025-09-17T14:56:33Z</time>
      </trkpt>
      <trkpt lat="45.51139" lon="4.35383">
        <ele>533</ele>
        <time>2025-09-17T14:58:37Z</time>
      </trkpt>
      <trkpt lat="45.51146" lon="4.3532">
        <ele>532</ele>
        <time>2025-09-17T14:59:12Z</time>
      </trkpt>
      <trkpt lat="45.51132" lon="4.35192">
        <ele>533</ele>
        <time>2025-09-17T15:00:25Z</time>
      </trkpt>
      <trkpt lat="45.51121" lon="4.35142">
        <ele>536</ele>
        <time>2025-09-17T15:00:55Z</time>
      </trkpt>
      <trkpt lat="45.5113" lon="4.35038">
        <ele>543</ele>
        <time>2025-09-17T15:01:53Z</time>
      </trkpt>
      <trkpt lat="45.51175" lon="4.34929">
        <ele>540</ele>
        <time>2025-09-17T15:03:04Z</time>
      </trkpt>
      <trkpt lat="45.51177" lon="4.34828">
        <ele>539</ele>
        <time>2025-09-17T15:04:01Z</time>
      </trkpt>
      <trkpt lat="45.51153" lon="4.34747">
        <ele>538</ele>
        <time>2025-09-17T15:04:50Z</time>
      </trkpt>
      <trkpt lat="45.5111" lon="4.3469">
        <ele>535</ele>
        <time>2025-09-17T15:05:37Z</time>
      </trkpt>
      <trkpt lat="45.51046" lon="4.34639">
        <ele>537</ele>
        <time>2025-09-17T15:06:36Z</time>
      </trkpt>
      <trkpt lat="45.51002" lon="4.3458">
        <ele>535</ele>
        <time>2025-09-17T15:07:24Z</time>
      </trkpt>
      <trkpt lat="45.50906" lon="4.34429">
        <ele>529</ele>
        <time>2025-09-17T15:09:19Z</time>
      </trkpt>
      <trkpt lat="45.5087" lon="4.34402">
        <ele>532</ele>
        <time>2025-09-17T15:09:51Z</time>
      </trkpt>
      <trkpt lat="45.50863" lon="4.34314">
        <ele>527</ele>
        <time>2025-09-17T15:10:41Z</time>
      </trkpt>
      <trkpt lat="45.5083" lon="4.34226">
        <ele>525</ele>
        <time>2025-09-17T15:11:37Z</time>
      </trkpt>
      <trkpt lat="45.50887" lon="4.34148">
        <ele>511</ele>
        <time>2025-09-17T15:12:40Z</time>
      </trkpt>
      <trkpt lat="45.50938" lon="4.34093">
        <ele>497</ele>
        <time>2025-09-17T15:13:32Z</time>
      </trkpt>
      <trkpt lat="45.50976" lon="4.34069">
        <ele>486</ele>
        <time>2025-09-17T15:14:05Z</time>
      </trkpt>
      <trkpt lat="45.51" lon="4.34049">
        <ele>478</ele>
        <time>2025-09-17T15:14:27Z</time>
      </trkpt>
      <trkpt lat="45.51021" lon="4.34037">
        <ele>474</ele>
        <time>2025-09-17T15:14:45Z</time>
      </trkpt>
      <trkpt lat="45.51048" lon="4.34055">
        <ele>473</ele>
        <time>2025-09-17T15:15:09Z</time>
      </trkpt>
      <trkpt lat="45.51079" lon="4.34021">
        <ele>466</ele>
        <time>2025-09-17T15:15:40Z</time>
      </trkpt>
      <trkpt lat="45.51123" lon="4.34033">
        <ele>466</ele>
        <time>2025-09-17T15:16:16Z</time>
      </trkpt>
      <trkpt lat="45.51152" lon="4.34042">
        <ele>465</ele>
        <time>2025-09-17T15:16:40Z</time>
      </trkpt>
      <trkpt lat="45.51184" lon="4.34031">
        <ele>466</ele>
        <time>2025-09-17T15:17:06Z</time>
      </trkpt>
      <trkpt lat="45.512" lon="4.34045">
        <ele>467</ele>
        <time>2025-09-17T15:17:21Z</time>
      </trkpt>
      <trkpt lat="45.51225" lon="4.34116">
        <ele>468</ele>
        <time>2025-09-17T15:18:06Z</time>
      </trkpt>
      <trkpt lat="45.5126" lon="4.34172">
        <ele>471</ele>
        <time>2025-09-17T15:18:48Z</time>
      </trkpt>
      <trkpt lat="45.51301" lon="4.34205">
        <ele>474</ele>
        <time>2025-09-17T15:19:26Z</time>
      </trkpt>
      <trkpt lat="45.51305" lon="4.3422">
        <ele>474</ele>
        <time>2025-09-17T15:19:35Z</time>
      </trkpt>
      <trkpt lat="45.51343" lon="4.34289">
        <ele>475</ele>
        <time>2025-09-17T15:20:24Z</time>
      </trkpt>
      <trkpt lat="45.51395" lon="4.34369">
        <ele>477</ele>
        <time>2025-09-17T15:21:25Z</time>
      </trkpt>
      <trkpt lat="45.51437" lon="4.34437">
        <ele>475</ele>
        <time>2025-09-17T15:22:16Z</time>
      </trkpt>
      <trkpt lat="45.51511" lon="4.34485">
        <ele>478</ele>
        <time>2025-09-17T15:23:21Z</time>
      </trkpt>
      <trkpt lat="45.51628" lon="4.34522">
        <ele>488</ele>
        <time>2025-09-17T15:24:57Z</time>
      </trkpt>
      <trkpt lat="45.51669" lon="4.34598">
        <ele>484</ele>
        <time>2025-09-17T15:25:51Z</time>
      </trkpt>
      <trkpt lat="45.51817" lon="4.34699">
        <ele>489</ele>
        <time>2025-09-17T15:28:02Z</time>
      </trkpt>
      <trkpt lat="45.51886" lon="4.34832">
        <ele>496</ele>
        <time>2025-09-17T15:29:35Z</time>
      </trkpt>
      <trkpt lat="45.52071" lon="4.34927">
        <ele>501</ele>
        <time>2025-09-17T15:32:12Z</time>
      </trkpt>
      <trkpt lat="45.522" lon="4.35046">
        <ele>493</ele>
        <time>2025-09-17T15:34:15Z</time>
      </trkpt>
      <trkpt lat="45.52249" lon="4.35051">
        <ele>494</ele>
        <time>2025-09-17T15:34:55Z</time>
      </trkpt>
      <trkpt lat="45.52295" lon="4.3509">
        <ele>500</ele>
        <time>2025-09-17T15:35:38Z</time>
      </trkpt>
      <trkpt lat="45.52319" lon="4.35104">
        <ele>502</ele>
        <time>2025-09-17T15:35:58Z</time>
      </trkpt>
      <trkpt lat="45.52407" lon="4.35177">
        <ele>503</ele>
        <time>2025-09-17T15:37:20Z</time>
      </trkpt>
      <trkpt lat="45.52461" lon="4.35244">
        <ele>506</ele>
        <time>2025-09-17T15:38:17Z</time>
      </trkpt>
      <trkpt lat="45.52506" lon="4.35292">
        <ele>506</ele>
        <time>2025-09-17T15:39:02Z</time>
      </trkpt>
      <trkpt lat="45.52521" lon="4.35361">
        <ele>503</ele>
        <time>2025-09-17T15:39:43Z</time>
      </trkpt>
      <trkpt lat="45.52559" lon="4.35406">
        <ele>506</ele>
        <time>2025-09-17T15:40:22Z</time>
      </trkpt>
      <trkpt lat="45.52596" lon="4.35516">
        <ele>505</ele>
        <time>2025-09-17T15:41:31Z</time>
      </trkpt>
      <trkpt lat="45.52603" lon="4.3559">
        <ele>509</ele>
        <time>2025-09-17T15:42:13Z</time>
      </trkpt>
      <trkpt lat="45.52605" lon="4.3568">
        <ele>515</ele>
        <time>2025-09-17T15:43:03Z</time>
      </trkpt>
      <trkpt lat="45.52645" lon="4.35747">
        <ele>521</ele>
        <time>2025-09-17T15:43:52Z</time>
      </trkpt>
      <trkpt lat="45.5266" lon="4.35767">
        <ele>521</ele>
        <time>2025-09-17T15:44:09Z</time>
      </trkpt>
      <trkpt lat="45.52675" lon="4.35806">
        <ele>522</ele>
        <time>2025-09-17T15:44:34Z</time>
      </trkpt>
      <trkpt lat="45.52657" lon="4.35921">
        <ele>529</ele>
        <time>2025-09-17T15:45:40Z</time>
      </trkpt>
      <trkpt lat="45.52677" lon="4.3598">
        <ele>531</ele>
        <time>2025-09-17T15:46:17Z</time>
      </trkpt>
      <trkpt lat="45.52663" lon="4.36068">
        <ele>543</ele>
        <time>2025-09-17T15:47:07Z</time>
      </trkpt>
      <trkpt lat="45.52683" lon="4.3618">
        <ele>555</ele>
        <time>2025-09-17T15:48:12Z</time>
      </trkpt>
      <trkpt lat="45.52764" lon="4.36281">
        <ele>564</ele>
        <time>2025-09-17T15:49:38Z</time>
      </trkpt>
      <trkpt lat="45.52783" lon="4.36323">
        <ele>572</ele>
        <time>2025-09-17T15:50:06Z</time>
      </trkpt>
      <trkpt lat="45.52799" lon="4.36374">
        <ele>581</ele>
        <time>2025-09-17T15:50:38Z</time>
      </trkpt>
      <trkpt lat="45.52866" lon="4.36405">
        <ele>583</ele>
        <time>2025-09-17T15:51:34Z</time>
      </trkpt>
      <trkpt lat="45.52893" lon="4.36379">
        <ele>575</ele>
        <time>2025-09-17T15:52:00Z</time>
      </trkpt>
      <trkpt lat="45.53" lon="4.36343">
        <ele>558</ele>
        <time>2025-09-17T15:53:28Z</time>
      </trkpt>
      <trkpt lat="45.53071" lon="4.36309">
        <ele>562</ele>
        <time>2025-09-17T15:54:28Z</time>
      </trkpt>
      <trkpt lat="45.53" lon="4.3629">
        <ele>554</ele>
        <time>2025-09-17T15:55:26Z</time>
      </trkpt>
      <trkpt lat="45.52968" lon="4.36245">
        <ele>551</ele>
        <time>2025-09-17T15:56:02Z</time>
      </trkpt>
      <trkpt lat="45.52949" lon="4.36101">
        <ele>551</ele>
        <time>2025-09-17T15:57:24Z</time>
      </trkpt>
      <trkpt lat="45.52925" lon="4.36">
        <ele>559</ele>
        <time>2025-09-17T15:58:24Z</time>
      </trkpt>
      <trkpt lat="45.52905" lon="4.35949">
        <ele>559</ele>
        <time>2025-09-17T15:58:57Z</time>
      </trkpt>
      <trkpt lat="45.52905" lon="4.35837">
        <ele>567</ele>
        <time>2025-09-17T16:00:00Z</time>
      </trkpt>
      <trkpt lat="45.52972" lon="4.35855">
        <ele>574</ele>
        <time>2025-09-17T16:00:54Z</time>
      </trkpt>
      <trkpt lat="45.53043" lon="4.35843">
        <ele>582</ele>
        <time>2025-09-17T16:01:51Z</time>
      </trkpt>
      <trkpt lat="45.53076" lon="4.35836">
        <ele>585</ele>
        <time>2025-09-17T16:02:18Z</time>
      </trkpt>
      <trkpt lat="45.53156" lon="4.35952">
        <ele>592</ele>
        <time>2025-09-17T16:03:49Z</time>
      </trkpt>
      <trkpt lat="45.53172" lon="4.36035">
        <ele>595</ele>
        <time>2025-09-17T16:04:38Z</time>
      </trkpt>
      <trkpt lat="45.53175" lon="4.36076">
        <ele>596</ele>
        <time>2025-09-17T16:05:01Z</time>
      </trkpt>
      <trkpt lat="45.53442" lon="4.36435">
        <ele>596</ele>
        <time>2025-09-17T16:09:54Z</time>
      </trkpt>
      <trkpt lat="45.5347" lon="4.36461">
        <ele>596</ele>
        <time>2025-09-17T16:10:21Z</time>
      </trkpt>
      <trkpt lat="45.53499" lon="4.36539">
        <ele>595</ele>
        <time>2025-09-17T16:11:11Z</time>
      </trkpt>
      <trkpt lat="45.53504" lon="4.36652">
        <ele>596</ele>
        <time>2025-09-17T16:12:14Z</time>
      </trkpt>
      <trkpt lat="45.53578" lon="4.36828">
        <ele>604</ele>
        <time>2025-09-17T16:14:09Z</time>
      </trkpt>
      <trkpt lat="45.53683" lon="4.3698">
        <ele>619</ele>
        <time>2025-09-17T16:16:09Z</time>
      </trkpt>
      <trkpt lat="45.53712" lon="4.37086">
        <ele>622</ele>
        <time>2025-09-17T16:17:13Z</time>
      </trkpt>
      <trkpt lat="45.5376" lon="4.3713">
        <ele>625</ele>
        <time>2025-09-17T16:17:59Z</time>
      </trkpt>
      <trkpt lat="45.53892" lon="4.37401">
        <ele>640</ele>
        <time>2025-09-17T16:21:04Z</time>
      </trkpt>
      <trkpt lat="45.53885" lon="4.37601">
        <ele>647</ele>
        <time>2025-09-17T16:22:56Z</time>
      </trkpt>
      <trkpt lat="45.53894" lon="4.37744">
        <ele>648</ele>
        <time>2025-09-17T16:24:17Z</time>
      </trkpt>
      <trkpt lat="45.53757" lon="4.37783">
        <ele>639</ele>
        <time>2025-09-17T16:26:08Z</time>
      </trkpt>
      <trkpt lat="45.53688" lon="4.37758">
        <ele>644</ele>
        <time>2025-09-17T16:27:05Z</time>
      </trkpt>
      <trkpt lat="45.53647" lon="4.3776">
        <ele>649</ele>
        <time>2025-09-17T16:27:38Z</time>
      </trkpt>
      <trkpt lat="45.53557" lon="4.37769">
        <ele>657</ele>
        <time>2025-09-17T16:28:50Z</time>
      </trkpt>
      <trkpt lat="45.53526" lon="4.3776">
        <ele>658</ele>
        <time>2025-09-17T16:29:16Z</time>
      </trkpt>
      <trkpt lat="45.53518" lon="4.37859">
        <ele>664</ele>
        <time>2025-09-17T16:30:12Z</time>
      </trkpt>
    </trkseg>
  </trk>
</gpx>